createdAt,value
2022-08-14T00:01:59.102Z,99646.25
2022-08-14T00:04:31.856Z,99659.03
2022-08-14T00:07:01.445Z,99658.97
2022-08-14T00:09:28.389Z,99651.38
2022-08-14T00:12:00.089Z,99661.84
2022-08-14T00:14:27.938Z,99676.41
2022-08-14T00:16:56.121Z,99646.53
2022-08-14T00:19:23.570Z,99666.22
2022-08-14T00:21:53.800Z,99668.03
2022-08-14T00:24:23.247Z,99661.28
2022-08-14T00:27:02.036Z,99671.81
2022-08-14T00:29:40.656Z,99676.25
2022-08-14T00:32:55.993Z,99679.41
2022-08-14T00:34:57.039Z,99682.81
2022-08-14T00:37:26.128Z,99708.28
2022-08-14T00:39:53.179Z,99681.41
2022-08-14T00:42:55.784Z,99683.97
2022-08-14T00:45:11.753Z,99696.56
2022-08-14T00:47:44.974Z,99671.06
2022-08-14T00:50:16.777Z,99670.91
2022-08-14T00:52:51.115Z,99681.06
2022-08-14T00:55:19.200Z,99666.78
2022-08-14T00:57:46.905Z,99739.81
2022-08-14T01:00:34.472Z,99639.66
2022-08-14T01:03:06.448Z,99661.53
2022-08-14T01:05:41.783Z,99673.59
2022-08-14T01:08:57.480Z,99659.63
2022-08-14T01:11:15.646Z,99656.34
2022-08-14T01:13:55.722Z,99669.00
2022-08-14T01:16:26.323Z,99665.88
2022-08-14T01:19:02.248Z,99651.59
2022-08-14T01:21:38.743Z,99662.47
2022-08-14T01:24:13.778Z,99680.47
2022-08-14T01:27:00.327Z,99671.09
2022-08-14T01:29:48.658Z,99661.13
2022-08-14T01:32:22.859Z,99676.47
2022-08-14T01:35:19.429Z,99674.66
2022-08-14T01:37:54.669Z,99672.28
2022-08-14T01:40:36.209Z,99677.47
2022-08-14T01:43:12.338Z,99686.66
2022-08-14T01:45:40.583Z,99684.63
2022-08-14T01:48:13.584Z,99705.34
2022-08-14T01:50:42.498Z,99721.88
2022-08-14T01:53:10.588Z,99712.03
2022-08-14T01:55:40.528Z,99712.63
2022-08-14T01:58:20.244Z,99699.69
2022-08-14T02:00:52.143Z,99704.75
2022-08-14T02:03:19.068Z,99674.97
2022-08-14T02:05:49.048Z,99727.66
2022-08-14T02:08:16.251Z,99710.41
2022-08-14T02:10:49.698Z,99701.78
2022-08-14T02:13:21.130Z,99720.84
2022-08-14T02:15:50.213Z,99702.19
2022-08-14T02:18:18.317Z,99705.66
2022-08-14T02:20:46.134Z,99702.91
2022-08-14T02:23:14.549Z,99688.97
2022-08-14T02:25:42.368Z,99701.91
2022-08-14T02:28:24.682Z,99690.16
2022-08-14T02:30:56.913Z,99688.38
2022-08-14T02:33:24.118Z,99676.41
2022-08-14T02:36:05.084Z,99679.41
2022-08-14T02:38:43.524Z,99674.59
2022-08-14T02:41:12.701Z,99688.75
2022-08-14T02:43:46.180Z,99689.34
2022-08-14T02:46:20.320Z,99684.75
2022-08-14T02:49:03.389Z,99683.78
2022-08-14T02:51:34.691Z,99687.69
2022-08-14T02:54:05.059Z,99689.22
2022-08-14T02:57:14.322Z,99700.78
2022-08-14T02:59:24.824Z,99671.03
2022-08-14T03:01:59.193Z,99684.72
2022-08-14T03:04:29.028Z,99694.72
2022-08-14T03:06:57.866Z,99675.22
2022-08-14T03:10:24.675Z,99676.00
2022-08-14T03:12:31.219Z,99676.56
2022-08-14T03:15:05.212Z,99672.78
2022-08-14T03:17:56.637Z,99670.34
2022-08-14T03:20:19.932Z,99664.53
2022-08-14T03:22:50.966Z,99670.28
2022-08-14T03:25:17.991Z,99678.69
2022-08-14T03:27:47.819Z,99663.78
2022-08-14T03:30:15.640Z,99647.28
2022-08-14T03:32:50.680Z,99655.06
2022-08-14T03:35:18.422Z,99666.69
2022-08-14T03:39:13.026Z,99678.97
2022-08-14T03:40:33.799Z,99654.47
2022-08-14T03:43:00.595Z,99643.59
2022-08-14T03:45:34.694Z,99646.16
2022-08-14T03:48:03.831Z,99640.22
2022-08-14T03:50:38.054Z,99627.13
2022-08-14T03:53:05.712Z,99655.41
2022-08-14T03:55:34.412Z,99656.09
2022-08-14T03:58:03.104Z,99671.50
2022-08-14T04:00:43.182Z,99646.00
2022-08-14T04:03:19.579Z,99637.22
2022-08-14T04:08:29.930Z,99666.78
2022-08-14T04:11:02.865Z,99663.13
2022-08-14T04:13:37.834Z,99678.03
2022-08-14T04:16:25.512Z,99668.13
2022-08-14T04:18:59.782Z,99701.38
2022-08-14T04:21:28.771Z,99674.72
2022-08-14T04:23:59.891Z,99677.69
2022-08-14T04:26:42.475Z,99681.63
2022-08-14T04:29:15.470Z,99665.19
2022-08-14T04:33:00.715Z,99663.69
2022-08-14T04:34:31.049Z,99645.34
2022-08-14T04:36:57.880Z,99655.50
2022-08-14T04:39:24.787Z,99652.88
2022-08-14T04:41:51.598Z,99648.53
2022-08-14T04:44:36.276Z,99646.13
2022-08-14T04:47:04.504Z,99619.28
2022-08-14T04:49:33.124Z,99639.22
2022-08-14T04:52:18.914Z,99648.19
2022-08-14T04:54:50.088Z,99637.19
2022-08-14T04:57:17.618Z,99645.06
2022-08-14T04:59:46.257Z,99650.44
2022-08-14T05:02:13.244Z,99658.78
2022-08-14T05:04:40.475Z,99628.66
2022-08-14T05:07:12.536Z,99640.00
2022-08-14T05:09:39.402Z,99644.03
2022-08-14T05:13:13.607Z,99644.91
2022-08-14T05:15:01.893Z,99649.47
2022-08-14T05:17:43.850Z,99656.88
2022-08-14T05:21:04.154Z,99632.78
2022-08-14T05:22:58.350Z,99626.84
2022-08-14T05:25:30.663Z,99658.50
2022-08-14T05:27:58.050Z,99654.00
2022-08-14T05:30:26.157Z,99644.38
2022-08-14T05:32:54.247Z,99639.81
2022-08-14T05:35:21.821Z,99658.56
2022-08-14T05:37:48.802Z,99675.38
2022-08-14T05:40:16.391Z,99653.31
2022-08-14T05:42:46.579Z,99638.16
2022-08-14T05:45:19.941Z,99649.97
2022-08-14T05:47:46.893Z,99646.88
2022-08-14T05:50:19.147Z,99641.41
2022-08-14T05:52:49.285Z,99655.44
2022-08-14T05:55:21.773Z,99644.34
2022-08-14T05:57:51.986Z,99632.56
2022-08-14T06:00:24.704Z,99654.03
2022-08-14T06:02:57.229Z,99600.81
2022-08-14T06:05:24.683Z,99637.25
2022-08-14T06:08:31.050Z,99631.56
2022-08-14T06:11:06.949Z,99646.25
2022-08-14T06:13:45.872Z,99639.88
2022-08-14T06:16:18.239Z,99618.13
2022-08-14T06:18:52.418Z,99640.25
2022-08-14T06:21:23.502Z,99638.56
2022-08-14T06:23:53.519Z,99616.13
2022-08-14T06:26:22.479Z,99650.63
2022-08-14T06:28:52.038Z,99628.56
2022-08-14T06:31:25.904Z,99648.25
2022-08-14T06:35:02.675Z,99592.06
2022-08-14T06:36:43.347Z,99616.38
2022-08-14T06:39:11.520Z,99627.94
2022-08-14T06:41:57.971Z,99638.16
2022-08-14T06:44:33.256Z,99631.75
2022-08-14T06:47:04.779Z,99637.19
2022-08-14T06:52:40.043Z,99619.59
2022-08-14T06:55:19.978Z,99642.81
2022-08-14T06:58:46.774Z,99646.31
2022-08-14T07:05:55.518Z,99653.25
2022-08-14T07:08:26.167Z,99640.19
2022-08-14T07:11:01.410Z,99637.91
2022-08-14T07:13:30.668Z,99643.38
2022-08-14T07:16:00.493Z,99647.97
2022-08-14T07:18:34.765Z,99643.78
2022-08-14T07:21:03.500Z,99639.47
2022-08-14T07:23:50.651Z,99648.09
2022-08-14T07:26:18.568Z,99643.97
2022-08-14T07:28:45.506Z,99651.84
2022-08-14T07:31:13.122Z,99658.72
2022-08-14T07:33:45.503Z,99650.13
2022-08-14T07:36:29.945Z,99641.72
2022-08-14T07:39:03.148Z,99642.44
2022-08-14T07:41:39.291Z,99644.19
2022-08-14T07:44:28.932Z,99657.97
2022-08-14T07:47:01.919Z,99646.59
2022-08-14T07:49:32.473Z,99665.03
2022-08-14T07:52:00.085Z,99651.00
2022-08-14T07:54:30.039Z,99641.44
2022-08-14T07:57:00.065Z,99628.13
2022-08-14T07:59:42.257Z,99644.59
2022-08-14T08:02:17.303Z,99626.06
2022-08-14T08:04:49.582Z,99636.69
2022-08-14T08:07:17.066Z,99638.81
2022-08-14T08:10:14.156Z,99645.78
2022-08-14T08:13:02.472Z,99629.94
2022-08-14T08:15:35.128Z,99639.03
2022-08-14T08:18:06.128Z,99632.25
2022-08-14T08:20:44.209Z,99609.16
2022-08-14T08:23:22.637Z,99635.59
2022-08-14T08:25:57.958Z,99618.53
2022-08-14T08:28:27.692Z,99637.19
2022-08-14T08:31:04.391Z,99634.22
2022-08-14T08:33:37.194Z,99610.00
2022-08-14T08:36:13.026Z,99635.53
2022-08-14T08:39:18.383Z,99641.94
2022-08-14T08:41:45.189Z,99632.09
2022-08-14T08:44:17.505Z,99617.28
2022-08-14T08:46:59.448Z,99629.16
2022-08-14T08:49:42.858Z,99618.31
2022-08-14T08:52:24.443Z,99624.75
2022-08-14T08:54:54.756Z,99642.63
2022-08-14T08:57:21.771Z,99610.41
2022-08-14T08:59:48.616Z,99611.13
2022-08-14T09:02:22.372Z,99617.06
2022-08-14T09:04:53.891Z,99625.25
2022-08-14T09:07:27.429Z,99627.53
2022-08-14T09:09:59.187Z,99638.25
2022-08-14T09:12:32.289Z,99575.88
2022-08-14T09:15:11.824Z,99613.56
2022-08-14T09:18:05.999Z,99600.56
2022-08-14T09:20:33.287Z,99621.47
2022-08-14T09:23:07.969Z,99619.31
2022-08-14T09:25:59.982Z,99611.22
2022-08-14T09:28:24.299Z,99608.56
2022-08-14T09:30:55.159Z,99608.59
2022-08-14T09:33:56.605Z,99616.44
2022-08-14T09:36:36.179Z,99619.94
2022-08-14T09:39:23.124Z,99613.19
2022-08-14T09:42:21.717Z,99625.66
2022-08-14T09:45:21.755Z,99609.63
2022-08-14T09:47:55.127Z,99621.91
2022-08-14T09:50:27.586Z,99609.50
2022-08-14T09:53:05.132Z,99633.03
2022-08-14T09:55:41.483Z,99612.59
2022-08-14T09:58:19.399Z,99606.19
2022-08-14T10:00:53.282Z,99604.72
2022-08-14T10:03:37.509Z,99589.66
2022-08-14T10:06:05.365Z,99603.28
2022-08-14T10:08:42.191Z,99614.00
2022-08-14T10:11:35.100Z,99605.31
2022-08-14T10:14:29.332Z,99585.66
2022-08-14T10:17:08.565Z,99586.06
2022-08-14T10:19:46.963Z,99587.91
2022-08-14T10:23:14.422Z,99579.72
2022-08-14T10:25:22.609Z,99582.84
2022-08-14T10:27:58.148Z,99599.59
2022-08-14T10:30:34.826Z,99598.19
2022-08-14T10:33:01.823Z,99587.59
2022-08-14T10:35:40.120Z,99598.44
2022-08-14T10:38:07.480Z,99598.00
2022-08-14T10:40:37.835Z,99586.63
2022-08-14T10:43:23.298Z,99600.00
2022-08-14T10:46:03.454Z,99614.06
2022-08-14T10:49:02.528Z,99596.19
2022-08-14T10:51:33.896Z,99598.00
2022-08-14T10:54:17.018Z,99607.16
2022-08-14T10:56:53.577Z,99594.44
2022-08-14T10:59:30.826Z,99588.78
2022-08-14T11:02:35.780Z,99589.41
2022-08-14T11:05:17.476Z,99580.72
2022-08-14T11:07:56.864Z,99595.28
2022-08-14T11:10:43.926Z,99572.47
2022-08-14T11:13:16.795Z,99584.41
2022-08-14T11:15:44.229Z,99572.56
2022-08-14T11:18:20.093Z,99585.97
2022-08-14T11:20:52.895Z,99562.72
2022-08-14T11:23:28.736Z,99551.19
2022-08-14T11:26:07.216Z,99572.03
2022-08-14T11:28:46.776Z,99547.53
2022-08-14T11:31:22.183Z,99584.69
2022-08-14T11:33:54.190Z,99567.84
2022-08-14T11:36:24.220Z,99585.63
2022-08-14T11:39:22.991Z,99550.16
2022-08-14T11:42:55.578Z,99568.88
2022-08-14T11:44:51.104Z,99548.13
2022-08-14T11:47:20.857Z,99557.78
2022-08-14T11:49:48.197Z,99561.88
2022-08-14T11:52:19.487Z,99554.06
2022-08-14T11:54:57.776Z,99548.03
2022-08-14T11:57:25.170Z,99494.44
2022-08-14T12:00:08.501Z,99549.75
2022-08-14T12:03:03.301Z,99535.34
2022-08-14T12:05:34.103Z,99564.25
2022-08-14T12:08:06.770Z,99529.19
2022-08-14T12:10:42.999Z,99536.38
2022-08-14T12:13:18.066Z,99543.25
2022-08-14T12:15:56.705Z,99542.78
2022-08-14T12:18:37.262Z,99532.63
2022-08-14T12:21:25.639Z,99533.00
2022-08-14T12:24:08.536Z,99531.25
2022-08-14T12:26:59.501Z,99517.84
2022-08-14T12:29:26.378Z,99542.06
2022-08-14T12:32:23.870Z,99536.38
2022-08-14T12:34:54.510Z,99534.31
2022-08-14T12:37:30.388Z,99531.69
2022-08-14T12:40:12.652Z,99542.31
2022-08-14T12:42:47.568Z,99540.69
2022-08-14T12:45:31.880Z,99514.34
2022-08-14T12:48:21.181Z,99504.63
2022-08-14T12:50:51.734Z,99506.94
2022-08-14T12:53:20.310Z,99508.84
2022-08-14T12:56:21.416Z,99513.19
2022-08-14T12:58:59.831Z,99510.75
2022-08-14T13:01:30.971Z,99509.00
2022-08-14T13:04:18.846Z,99489.34
2022-08-14T13:06:50.775Z,99500.34
2022-08-14T13:09:23.329Z,99483.41
2022-08-14T13:11:58.794Z,99517.72
2022-08-14T13:14:50.214Z,99496.81
2022-08-14T13:17:19.864Z,99500.25
2022-08-14T13:19:51.077Z,99489.69
2022-08-14T13:22:33.294Z,99509.66
2022-08-14T13:25:06.681Z,99494.91
2022-08-14T13:27:39.103Z,99482.38
2022-08-14T13:30:10.571Z,99493.34
2022-08-14T13:32:47.294Z,99508.03
2022-08-14T13:35:18.058Z,99460.81
2022-08-14T13:38:01.359Z,99499.81
2022-08-14T13:40:28.459Z,99493.59
2022-08-14T13:42:57.644Z,99461.16
2022-08-14T13:45:33.867Z,99490.59
2022-08-14T13:48:32.427Z,99484.72
2022-08-14T13:51:10.604Z,99486.56
2022-08-14T13:54:07.020Z,99490.97
2022-08-14T13:56:41.880Z,99487.50
2022-08-14T13:59:10.371Z,99491.47
2022-08-14T14:01:44.813Z,99468.97
2022-08-14T14:04:19.333Z,99482.09
2022-08-14T14:06:48.971Z,99483.13
2022-08-14T14:09:27.122Z,99471.63
2022-08-14T14:12:37.431Z,99465.22
2022-08-14T14:15:13.850Z,99475.84
2022-08-14T14:17:44.022Z,99464.84
2022-08-14T14:20:34.546Z,99460.19
2022-08-14T14:23:09.332Z,99470.63
2022-08-14T14:25:49.290Z,99483.19
2022-08-14T14:28:40.311Z,99492.94
2022-08-14T14:31:12.051Z,99458.69
2022-08-14T14:33:47.474Z,99465.81
2022-08-14T14:36:21.780Z,99480.06
2022-08-14T14:39:09.526Z,99473.84
2022-08-14T14:41:43.814Z,99493.06
2022-08-14T14:44:15.662Z,99482.72
2022-08-14T14:46:44.708Z,99476.81
2022-08-14T14:49:13.929Z,99472.13
2022-08-14T14:51:49.795Z,99490.81
2022-08-14T14:54:30.269Z,99474.84
2022-08-14T14:57:04.275Z,99464.09
2022-08-14T14:59:37.681Z,99466.69
2022-08-14T15:02:07.809Z,99479.81
2022-08-14T15:04:45.522Z,99475.66
2022-08-14T15:07:13.197Z,99450.16
2022-08-14T15:09:43.574Z,99486.53
2022-08-14T15:12:27.868Z,99472.13
2022-08-14T15:15:08.412Z,99470.91
2022-08-14T15:17:41.118Z,99466.00
2022-08-14T15:20:17.277Z,99476.84
2022-08-14T15:23:01.121Z,99491.06
2022-08-14T15:25:39.493Z,99462.56
2022-08-14T15:28:07.293Z,99464.31
2022-08-14T15:30:40.197Z,99452.28
2022-08-14T15:33:10.211Z,99464.34
2022-08-14T15:35:47.854Z,99470.47
2022-08-14T15:38:17.926Z,99463.34
2022-08-14T15:40:45.012Z,99462.09
2022-08-14T15:43:18.756Z,99468.47
2022-08-14T15:45:46.260Z,99465.03
2022-08-14T15:48:33.960Z,99465.75
2022-08-14T15:51:02.126Z,99475.81
2022-08-14T15:53:31.463Z,99492.03
2022-08-14T15:55:59.587Z,99475.56
2022-08-14T15:58:49.792Z,99468.91
2022-08-14T16:01:43.595Z,99509.16
2022-08-14T16:04:18.120Z,99485.53
2022-08-14T16:06:45.162Z,99468.56
2022-08-14T16:09:24.107Z,99470.72
2022-08-14T16:11:53.915Z,99466.25
2022-08-14T16:14:24.708Z,99478.72
2022-08-14T16:17:00.596Z,99486.78
2022-08-14T16:19:29.868Z,99484.97
2022-08-14T16:22:57.385Z,99484.16
2022-08-14T16:25:43.212Z,99501.34
2022-08-14T16:28:10.827Z,99482.84
2022-08-14T16:30:54.664Z,99487.47
2022-08-14T16:33:27.904Z,99488.69
2022-08-14T16:36:19.691Z,99494.94
2022-08-14T16:39:05.590Z,99485.78
2022-08-14T16:41:34.889Z,99495.22
2022-08-14T16:44:05.192Z,99471.31
2022-08-14T16:47:04.183Z,99489.09
2022-08-14T16:50:04.528Z,99487.47
2022-08-14T16:52:44.680Z,99496.22
2022-08-14T16:55:16.864Z,99510.59
2022-08-14T16:57:50.632Z,99520.94
2022-08-14T17:00:32.945Z,99530.00
2022-08-14T17:03:02.918Z,99511.88
2022-08-14T17:05:50.474Z,99537.47
2022-08-14T17:08:32.583Z,99535.97
2022-08-14T17:11:10.928Z,99532.34
2022-08-14T17:13:59.066Z,99534.50
2022-08-14T17:16:31.722Z,99527.38
2022-08-14T17:19:00.706Z,99534.44
2022-08-14T17:21:41.761Z,99524.16
2022-08-14T17:25:25.106Z,99520.88
2022-08-14T17:28:51.771Z,99524.06
2022-08-14T17:31:58.953Z,99540.19
2022-08-14T17:34:49.248Z,99524.09
2022-08-14T17:37:34.188Z,99535.06
2022-08-14T17:40:16.696Z,99500.66
2022-08-14T17:42:46.858Z,99534.53
2022-08-14T17:45:42.996Z,99526.72
2022-08-14T17:49:10.158Z,99527.38
2022-08-14T17:51:16.436Z,99526.28
2022-08-14T17:54:01.388Z,99525.63
2022-08-14T17:56:31.899Z,99527.00
2022-08-14T17:59:01.801Z,99499.81
2022-08-14T18:01:36.248Z,99542.69
2022-08-14T18:04:24.645Z,99524.63
2022-08-14T18:07:16.122Z,99540.00
2022-08-14T18:09:57.165Z,99510.47
2022-08-14T18:12:31.710Z,99526.28
2022-08-14T18:15:16.847Z,99534.81
2022-08-14T18:17:53.106Z,99514.53
2022-08-14T18:21:41.113Z,99512.59
2022-08-14T18:23:13.723Z,99548.78
2022-08-14T18:25:54.466Z,99515.63
2022-08-14T18:28:48.623Z,99522.69
2022-08-14T18:31:23.260Z,99508.22
2022-08-14T18:33:54.753Z,99525.28
2022-08-14T18:36:47.168Z,99547.84
2022-08-14T18:39:24.522Z,99519.88
2022-08-14T18:41:54.422Z,99523.50
2022-08-14T18:44:52.635Z,99525.91
2022-08-14T18:47:22.238Z,99526.34
2022-08-14T18:50:01.014Z,99502.44
2022-08-14T18:52:36.747Z,99521.44
2022-08-14T18:55:16.344Z,99515.47
2022-08-14T18:57:58.265Z,99510.34
2022-08-14T19:00:32.854Z,99517.94
2022-08-14T19:03:01.494Z,99534.78
2022-08-14T19:05:37.964Z,99510.19
2022-08-14T19:08:18.322Z,99520.28
2022-08-14T19:10:46.854Z,99531.81
2022-08-14T19:13:44.500Z,99517.72
2022-08-14T19:16:23.258Z,99531.75
2022-08-14T19:18:54.335Z,99519.19
2022-08-14T19:21:57.150Z,99504.94
2022-08-14T19:24:44.291Z,99501.94
2022-08-14T19:27:24.467Z,99507.13
2022-08-14T19:30:19.947Z,99520.25
2022-08-14T19:32:56.059Z,99521.00
2022-08-14T19:35:49.539Z,99516.78
2022-08-14T19:38:52.148Z,99524.06
2022-08-14T19:41:29.672Z,99529.03
2022-08-14T19:44:19.343Z,99513.25
2022-08-14T19:47:02.501Z,99501.00
2022-08-14T19:50:25.041Z,99524.03
2022-08-14T19:52:35.200Z,99515.56
2022-08-14T19:55:45.700Z,99521.34
2022-08-14T19:58:13.254Z,99535.06
2022-08-14T20:00:52.783Z,99510.19
2022-08-14T20:06:47.054Z,99519.16
2022-08-14T20:11:07.361Z,99539.09
2022-08-14T20:12:04.877Z,99533.19
2022-08-14T20:14:36.188Z,99547.28
2022-08-14T20:17:06.801Z,99537.38
2022-08-14T20:19:41.702Z,99545.09
2022-08-14T20:22:35.033Z,99523.78
2022-08-14T20:25:16.805Z,99535.44
2022-08-14T20:27:47.922Z,99539.00
2022-08-14T20:30:35.033Z,99552.66
2022-08-14T20:33:10.850Z,99525.50
2022-08-14T20:35:38.592Z,99522.38
2022-08-14T20:38:30.605Z,99530.41
2022-08-14T20:41:05.678Z,99546.75
2022-08-14T20:43:37.181Z,99526.56
2022-08-14T20:46:16.371Z,99533.09
2022-08-14T20:49:07.898Z,99530.28
2022-08-14T20:51:38.326Z,99539.47
2022-08-14T20:54:34.082Z,99538.16
2022-08-14T20:57:14.202Z,99535.88
2022-08-14T20:59:50.114Z,99552.16
2022-08-14T21:02:46.349Z,99528.94
2022-08-14T21:05:20.570Z,99543.25
2022-08-14T21:07:50.283Z,99559.75
2022-08-14T21:10:32.799Z,99552.31
2022-08-14T21:13:25.873Z,99559.88
2022-08-14T21:15:57.101Z,99552.47
2022-08-14T21:18:31.853Z,99561.38
2022-08-14T21:21:07.505Z,99540.88
2022-08-14T21:23:54.726Z,99551.44
2022-08-14T21:26:51.268Z,99545.19
2022-08-14T21:29:49.864Z,99542.34
2022-08-14T21:32:21.428Z,99546.34
2022-08-14T21:34:55.335Z,99553.97
2022-08-14T21:37:22.573Z,99541.19
2022-08-14T21:39:57.180Z,99549.50
2022-08-14T21:42:27.846Z,99564.66
2022-08-14T21:44:54.987Z,99543.53
2022-08-14T21:47:23.625Z,99541.78
2022-08-14T21:49:50.909Z,99550.69
2022-08-14T21:52:51.528Z,99564.22
2022-08-14T21:55:13.164Z,99559.91
2022-08-14T21:58:03.899Z,99548.88
2022-08-14T22:00:39.663Z,99538.50
2022-08-14T22:03:27.319Z,99552.47
2022-08-14T22:06:03.051Z,99556.03
2022-08-14T22:08:30.003Z,99542.94
2022-08-14T22:10:57.062Z,99551.56
2022-08-14T22:13:35.068Z,99546.53
2022-08-14T22:17:01.975Z,99552.03
2022-08-14T22:19:01.411Z,99542.97
2022-08-14T22:21:28.605Z,99556.19
2022-08-14T22:23:58.188Z,99545.78
2022-08-14T22:26:30.711Z,99538.78
2022-08-14T22:28:59.820Z,99545.78
2022-08-14T22:31:39.727Z,99537.16
2022-08-14T22:34:09.306Z,99542.66
2022-08-14T22:36:42.430Z,99546.81
2022-08-14T22:39:13.785Z,99554.41
2022-08-14T22:41:43.647Z,99537.31
2022-08-14T22:44:28.525Z,99555.16
2022-08-14T22:46:57.462Z,99544.88
2022-08-14T22:50:29.071Z,99544.16
2022-08-14T22:52:32.113Z,99548.16
2022-08-14T22:55:44.314Z,99563.03
2022-08-14T22:58:35.844Z,99552.47
2022-08-14T23:01:11.981Z,99542.81
2022-08-14T23:03:42.344Z,99506.53
2022-08-14T23:07:02.436Z,99545.19
2022-08-14T23:09:35.195Z,99549.81
2022-08-14T23:11:45.311Z,99532.56
2022-08-14T23:14:13.818Z,99539.69
2022-08-14T23:16:52.076Z,99555.28
2022-08-14T23:19:34.898Z,99544.88
2022-08-14T23:22:04.642Z,99556.50
2022-08-14T23:24:31.528Z,99524.69
2022-08-14T23:26:59.023Z,99537.31
2022-08-14T23:29:25.913Z,99547.41
2022-08-14T23:31:59.098Z,99540.28
2022-08-14T23:34:29.390Z,99538.19
2022-08-14T23:36:57.719Z,99547.13
2022-08-14T23:39:31.244Z,99549.81
2022-08-14T23:42:05.417Z,99550.09
2022-08-14T23:44:35.744Z,99526.91
2022-08-14T23:47:25.206Z,99549.81
2022-08-14T23:50:01.347Z,99525.44
2022-08-14T23:52:56.297Z,99567.03
2022-08-14T23:55:27.282Z,99551.59
2022-08-14T23:57:57.435Z,99518.44
